sensor_id;sensor_type;location;lat;lon;timestamp;pressure;altitude;pressure_sealevel;temperature;humidity
54948;BME280;41113;41.882;12.530;2023-02-03T00:01:08;102120.47;;;6.51;95.54
54948;BME280;41113;41.882;12.530;2023-02-03T00:03:34;102132.31;;;6.27;95.54
54948;BME280;41113;41.882;12.530;2023-02-03T00:06:01;102141.66;;;6.17;96.91
54948;BME280;41113;41.882;12.530;2023-02-03T00:08:27;102151.34;;;6.19;97.10
54948;BME280;41113;41.882;12.530;2023-02-03T00:10:53;102141.75;;;6.34;96.82
54948;BME280;41113;41.882;12.530;2023-02-03T00:13:19;102144.56;;;6.31;96.38
54948;BME280;41113;41.882;12.530;2023-02-03T00:15:44;102135.47;;;6.35;96.35
54948;BME280;41113;41.882;12.530;2023-02-03T00:18:10;102140.28;;;6.46;96.26
54948;BME280;41113;41.882;12.530;2023-02-03T00:20:36;102138.63;;;6.43;95.19
54948;BME280;41113;41.882;12.530;2023-02-03T00:23:06;102133.50;;;6.39;95.11
54948;BME280;41113;41.882;12.530;2023-02-03T00:25:32;102136.97;;;6.41;95.54
54948;BME280;41113;41.882;12.530;2023-02-03T00:27:57;102142.09;;;6.45;95.32
54948;BME280;41113;41.882;12.530;2023-02-03T00:30:23;102135.63;;;6.51;95.01
54948;BME280;41113;41.882;12.530;2023-02-03T00:32:48;102144.47;;;6.51;94.89
54948;BME280;41113;41.882;12.530;2023-02-03T00:35:14;102161.84;;;6.41;94.92
54948;BME280;41113;41.882;12.530;2023-02-03T00:37:39;102163.25;;;6.31;95.77
54948;BME280;41113;41.882;12.530;2023-02-03T00:40:05;102158.84;;;6.30;96.25
54948;BME280;41113;41.882;12.530;2023-02-03T00:42:30;102161.44;;;6.32;95.90
54948;BME280;41113;41.882;12.530;2023-02-03T00:44:55;102160.50;;;6.33;95.81
54948;BME280;41113;41.882;12.530;2023-02-03T00:47:21;102156.81;;;6.35;95.42
54948;BME280;41113;41.882;12.530;2023-02-03T00:49:46;102149.19;;;6.28;95.54
54948;BME280;41113;41.882;12.530;2023-02-03T00:52:12;102150.19;;;6.25;96.27
54948;BME280;41113;41.882;12.530;2023-02-03T00:54:37;102150.03;;;6.28;96.03
54948;BME280;41113;41.882;12.530;2023-02-03T00:57:02;102148.47;;;6.24;95.51
54948;BME280;41113;41.882;12.530;2023-02-03T00:59:28;102145.81;;;6.24;96.37
54948;BME280;41113;41.882;12.530;2023-02-03T01:01:53;102156.88;;;6.15;96.52
54948;BME280;41113;41.882;12.530;2023-02-03T01:04:18;102157.97;;;6.11;97.22
54948;BME280;41113;41.882;12.530;2023-02-03T01:06:44;102158.97;;;6.08;97.77
54948;BME280;41113;41.882;12.530;2023-02-03T01:09:09;102151.69;;;6.12;97.83
54948;BME280;41113;41.882;12.530;2023-02-03T01:11:35;102148.88;;;6.15;97.59
54948;BME280;41113;41.882;12.530;2023-02-03T01:14:00;102151.28;;;6.21;97.12
54948;BME280;41113;41.882;12.530;2023-02-03T01:16:27;102150.19;;;6.25;96.83
54948;BME280;41113;41.882;12.530;2023-02-03T01:18:53;102156.03;;;6.33;96.34
54948;BME280;41113;41.882;12.530;2023-02-03T01:21:21;102157.31;;;6.43;95.42
54948;BME280;41113;41.882;12.530;2023-02-03T01:23:49;102146.56;;;6.45;95.08
54948;BME280;41113;41.882;12.530;2023-02-03T01:26:16;102146.28;;;6.51;94.45
54948;BME280;41113;41.882;12.530;2023-02-03T01:28:42;102151.47;;;6.54;93.94
54948;BME280;41113;41.882;12.530;2023-02-03T01:31:19;102147.41;;;6.45;93.46
54948;BME280;41113;41.882;12.530;2023-02-03T01:33:46;102146.06;;;6.37;93.69
54948;BME280;41113;41.882;12.530;2023-02-03T01:36:14;102156.97;;;6.32;94.46
54948;BME280;41113;41.882;12.530;2023-02-03T01:38:40;102160.88;;;6.25;95.29
54948;BME280;41113;41.882;12.530;2023-02-03T01:41:15;102153.94;;;6.21;95.36
54948;BME280;41113;41.882;12.530;2023-02-03T01:43:45;102153.41;;;6.13;95.64
54948;BME280;41113;41.882;12.530;2023-02-03T01:48:39;102146.28;;;6.32;94.92
54948;BME280;41113;41.882;12.530;2023-02-03T01:51:04;102146.72;;;6.42;94.03
54948;BME280;41113;41.882;12.530;2023-02-03T01:53:30;102146.63;;;6.43;93.07
54948;BME280;41113;41.882;12.530;2023-02-03T01:55:57;102144.53;;;6.50;92.64
54948;BME280;41113;41.882;12.530;2023-02-03T01:58:28;102143.41;;;6.55;92.67
54948;BME280;41113;41.882;12.530;2023-02-03T02:00:56;102144.81;;;6.63;91.78
54948;BME280;41113;41.882;12.530;2023-02-03T02:03:26;102134.13;;;6.63;91.33
54948;BME280;41113;41.882;12.530;2023-02-03T02:06:07;102136.41;;;6.70;91.27
54948;BME280;41113;41.882;12.530;2023-02-03T02:08:34;102139.00;;;6.72;90.51
54948;BME280;41113;41.882;12.530;2023-02-03T02:11:00;102128.34;;;6.72;90.25
54948;BME280;41113;41.882;12.530;2023-02-03T02:13:28;102129.88;;;6.59;89.32
54948;BME280;41113;41.882;12.530;2023-02-03T02:18:56;102143.34;;;6.19;89.04
54948;BME280;41113;41.882;12.530;2023-02-03T02:22:03;102149.91;;;5.93;90.07
54948;BME280;41113;41.882;12.530;2023-02-03T02:33:44;102147.13;;;5.56;92.33
54948;BME280;41113;41.882;12.530;2023-02-03T02:38:58;102139.88;;;5.59;91.96
54948;BME280;41113;41.882;12.530;2023-02-03T02:41:50;102141.59;;;5.60;91.78
54948;BME280;41113;41.882;12.530;2023-02-03T02:44:25;102143.78;;;5.71;92.08
54948;BME280;41113;41.882;12.530;2023-02-03T02:46:56;102142.34;;;5.83;91.42
54948;BME280;41113;41.882;12.530;2023-02-03T02:49:27;102143.19;;;5.83;90.97
54948;BME280;41113;41.882;12.530;2023-02-03T02:51:55;102141.09;;;5.91;91.07
54948;BME280;41113;41.882;12.530;2023-02-03T02:54:24;102132.44;;;5.86;90.51
54948;BME280;41113;41.882;12.530;2023-02-03T02:56:54;102136.44;;;5.76;90.36
54948;BME280;41113;41.882;12.530;2023-02-03T02:59:20;102133.97;;;5.72;90.59
54948;BME280;41113;41.882;12.530;2023-02-03T03:01:46;102134.91;;;5.71;90.82
54948;BME280;41113;41.882;12.530;2023-02-03T03:04:14;102136.28;;;5.79;90.80
54948;BME280;41113;41.882;12.530;2023-02-03T03:06:48;102130.31;;;5.74;90.28
54948;BME280;41113;41.882;12.530;2023-02-03T03:09:23;102136.28;;;5.79;90.63
54948;BME280;41113;41.882;12.530;2023-02-03T03:11:53;102130.38;;;5.93;90.08
54948;BME280;41113;41.882;12.530;2023-02-03T03:14:22;102135.34;;;6.01;90.13
54948;BME280;41113;41.882;12.530;2023-02-03T03:16:53;102132.53;;;6.04;89.44
54948;BME280;41113;41.882;12.530;2023-02-03T03:19:24;102124.09;;;6.13;89.56
54948;BME280;41113;41.882;12.530;2023-02-03T03:21:52;102135.97;;;6.06;88.51
54948;BME280;41113;41.882;12.530;2023-02-03T03:24:24;102149.03;;;5.93;88.46
54948;BME280;41113;41.882;12.530;2023-02-03T03:26:55;102138.63;;;5.87;88.59
54948;BME280;41113;41.882;12.530;2023-02-03T03:29:31;102152.13;;;5.82;88.92
54948;BME280;41113;41.882;12.530;2023-02-03T03:32:00;102156.66;;;5.80;89.03
54948;BME280;41113;41.882;12.530;2023-02-03T03:34:27;102155.50;;;5.67;89.36
54948;BME280;41113;41.882;12.530;2023-02-03T03:37:23;102158.66;;;5.56;89.89
54948;BME280;41113;41.882;12.530;2023-02-03T03:39:59;102161.56;;;5.50;90.04
54948;BME280;41113;41.882;12.530;2023-02-03T03:42:33;102163.66;;;5.44;90.35
54948;BME280;41113;41.882;12.530;2023-02-03T03:50:35;102168.72;;;5.29;92.07
54948;BME280;41113;41.882;12.530;2023-02-03T03:53:03;102163.31;;;5.31;91.70
54948;BME280;41113;41.882;12.530;2023-02-03T03:55:32;102159.19;;;5.24;91.74
54948;BME280;41113;41.882;12.530;2023-02-03T03:58:02;102170.84;;;5.21;91.86
54948;BME280;41113;41.882;12.530;2023-02-03T04:00:31;102171.78;;;5.20;92.31
54948;BME280;41113;41.882;12.530;2023-02-03T04:03:04;102169.34;;;5.14;92.17
54948;BME280;41113;41.882;12.530;2023-02-03T04:05:32;102175.63;;;5.13;92.38
54948;BME280;41113;41.882;12.530;2023-02-03T04:07:59;102183.88;;;5.07;92.45
54948;BME280;41113;41.882;12.530;2023-02-03T04:10:36;102188.66;;;4.99;93.19
54948;BME280;41113;41.882;12.530;2023-02-03T04:13:03;102182.81;;;5.11;93.32
54948;BME280;41113;41.882;12.530;2023-02-03T04:15:30;102178.06;;;4.97;93.01
54948;BME280;41113;41.882;12.530;2023-02-03T04:17:55;102188.78;;;4.96;93.26
54948;BME280;41113;41.882;12.530;2023-02-03T04:20:22;102192.31;;;4.96;92.91
54948;BME280;41113;41.882;12.530;2023-02-03T04:22:47;102200.25;;;4.98;92.68
54948;BME280;41113;41.882;12.530;2023-02-03T04:25:12;102198.94;;;4.86;92.88
54948;BME280;41113;41.882;12.530;2023-02-03T04:27:38;102199.44;;;4.74;93.33
54948;BME280;41113;41.882;12.530;2023-02-03T04:30:04;102195.28;;;4.67;93.83
54948;BME280;41113;41.882;12.530;2023-02-03T04:32:30;102197.88;;;4.68;94.09
54948;BME280;41113;41.882;12.530;2023-02-03T04:34:56;102199.88;;;4.63;94.24
54948;BME280;41113;41.882;12.530;2023-02-03T04:37:22;102195.91;;;4.74;94.35
54948;BME280;41113;41.882;12.530;2023-02-03T04:39:48;102194.25;;;4.93;93.97
54948;BME280;41113;41.882;12.530;2023-02-03T04:42:16;102198.25;;;5.03;93.00
54948;BME280;41113;41.882;12.530;2023-02-03T04:44:42;102199.97;;;5.04;92.38
54948;BME280;41113;41.882;12.530;2023-02-03T04:47:07;102190.66;;;5.14;92.15
54948;BME280;41113;41.882;12.530;2023-02-03T04:49:33;102188.66;;;5.19;91.83
54948;BME280;41113;41.882;12.530;2023-02-03T04:51:58;102187.50;;;5.26;91.52
54948;BME280;41113;41.882;12.530;2023-02-03T04:54:23;102190.53;;;5.17;90.95
54948;BME280;41113;41.882;12.530;2023-02-03T04:56:49;102200.84;;;5.05;91.14
54948;BME280;41113;41.882;12.530;2023-02-03T04:59:14;102197.38;;;5.03;91.72
54948;BME280;41113;41.882;12.530;2023-02-03T05:01:39;102192.31;;;4.96;91.57
54948;BME280;41113;41.882;12.530;2023-02-03T05:04:05;102203.03;;;4.95;92.14
54948;BME280;41113;41.882;12.530;2023-02-03T05:06:30;102207.91;;;4.84;92.74
54948;BME280;41113;41.882;12.530;2023-02-03T05:08:58;102202.56;;;4.84;93.11
54948;BME280;41113;41.882;12.530;2023-02-03T05:11:24;102204.25;;;4.86;92.90
54948;BME280;41113;41.882;12.530;2023-02-03T05:13:50;102211.38;;;4.86;93.13
54948;BME280;41113;41.882;12.530;2023-02-03T05:16:15;102214.75;;;4.91;93.12
54948;BME280;41113;41.882;12.530;2023-02-03T05:18:41;102223.66;;;4.90;92.85
54948;BME280;41113;41.882;12.530;2023-02-03T05:21:07;102230.59;;;4.94;92.67
54948;BME280;41113;41.882;12.530;2023-02-03T05:23:32;102228.34;;;4.83;92.36
54948;BME280;41113;41.882;12.530;2023-02-03T05:25:58;102224.38;;;4.72;92.70
54948;BME280;41113;41.882;12.530;2023-02-03T05:28:23;102230.53;;;4.50;93.00
54948;BME280;41113;41.882;12.530;2023-02-03T05:30:48;102227.50;;;4.37;93.51
54948;BME280;41113;41.882;12.530;2023-02-03T05:33:14;102226.50;;;4.40;93.40
54948;BME280;41113;41.882;12.530;2023-02-03T05:35:39;102230.78;;;4.44;93.15
54948;BME280;41113;41.882;12.530;2023-02-03T05:38:05;102230.66;;;4.47;93.23
54948;BME280;41113;41.882;12.530;2023-02-03T05:40:30;102231.63;;;4.45;93.15
54948;BME280;41113;41.882;12.530;2023-02-03T05:43:14;102240.84;;;4.59;92.85
54948;BME280;41113;41.882;12.530;2023-02-03T05:45:40;102246.50;;;4.50;92.69
54948;BME280;41113;41.882;12.530;2023-02-03T05:48:05;102236.34;;;4.38;93.32
54948;BME280;41113;41.882;12.530;2023-02-03T05:50:34;102236.69;;;4.29;93.82
54948;BME280;41113;41.882;12.530;2023-02-03T05:53:02;102235.53;;;4.13;94.72
54948;BME280;41113;41.882;12.530;2023-02-03T05:55:29;102243.84;;;4.03;94.94
54948;BME280;41113;41.882;12.530;2023-02-03T05:57:54;102240.25;;;4.04;95.38
54948;BME280;41113;41.882;12.530;2023-02-03T06:00:21;102233.03;;;4.08;95.10
54948;BME280;41113;41.882;12.530;2023-02-03T06:02:51;102236.44;;;4.12;94.92
54948;BME280;41113;41.882;12.530;2023-02-03T06:05:17;102231.53;;;4.01;94.69
54948;BME280;41113;41.882;12.530;2023-02-03T06:07:42;102242.91;;;4.04;95.15
54948;BME280;41113;41.882;12.530;2023-02-03T06:10:08;102247.53;;;3.99;94.69
54948;BME280;41113;41.882;12.530;2023-02-03T06:12:33;102239.09;;;4.12;94.57
54948;BME280;41113;41.882;12.530;2023-02-03T06:14:59;102247.88;;;4.14;94.11
54948;BME280;41113;41.882;12.530;2023-02-03T06:17:24;102252.50;;;4.09;94.25
54948;BME280;41113;41.882;12.530;2023-02-03T06:19:49;102240.84;;;4.13;94.08
54948;BME280;41113;41.882;12.530;2023-02-03T06:22:15;102251.25;;;4.19;93.84
54948;BME280;41113;41.882;12.530;2023-02-03T06:24:40;102255.69;;;4.18;93.69
54948;BME280;41113;41.882;12.530;2023-02-03T06:27:05;102265.47;;;4.18;93.71
54948;BME280;41113;41.882;12.530;2023-02-03T06:29:31;102266.56;;;4.12;94.12
54948;BME280;41113;41.882;12.530;2023-02-03T06:31:56;102269.28;;;4.11;94.05
54948;BME280;41113;41.882;12.530;2023-02-03T06:34:21;102276.22;;;4.15;94.45
54948;BME280;41113;41.882;12.530;2023-02-03T06:36:47;102281.53;;;4.15;94.27
54948;BME280;41113;41.882;12.530;2023-02-03T06:39:13;102284.41;;;4.09;94.32
54948;BME280;41113;41.882;12.530;2023-02-03T06:41:38;102288.91;;;4.06;94.54
54948;BME280;41113;41.882;12.530;2023-02-03T06:44:04;102281.06;;;4.03;94.60
54948;BME280;41113;41.882;12.530;2023-02-03T06:46:29;102288.34;;;4.22;94.35
54948;BME280;41113;41.882;12.530;2023-02-03T06:48:55;102281.53;;;4.15;94.21
54948;BME280;41113;41.882;12.530;2023-02-03T06:51:20;102286.53;;;4.24;93.88
54948;BME280;41113;41.882;12.530;2023-02-03T06:53:49;102281.28;;;4.21;93.37
54948;BME280;41113;41.882;12.530;2023-02-03T06:56:14;102275.03;;;4.23;93.32
54948;BME280;41113;41.882;12.530;2023-02-03T06:58:40;102290.00;;;4.26;93.05
54948;BME280;41113;41.882;12.530;2023-02-03T07:01:06;102281.78;;;4.32;92.85
54948;BME280;41113;41.882;12.530;2023-02-03T07:03:31;102277.84;;;4.42;92.54
54948;BME280;41113;41.882;12.530;2023-02-03T07:05:56;102280.38;;;4.45;92.18
54948;BME280;41113;41.882;12.530;2023-02-03T07:08:22;102284.50;;;4.30;92.43
54948;BME280;41113;41.882;12.530;2023-02-03T07:10:53;102295.44;;;4.23;92.75
54948;BME280;41113;41.882;12.530;2023-02-03T07:13:20;102287.28;;;4.27;93.12
54948;BME280;41113;41.882;12.530;2023-02-03T07:15:45;102283.03;;;4.22;93.32
54948;BME280;41113;41.882;12.530;2023-02-03T07:18:11;102283.03;;;4.22;93.44
54948;BME280;41113;41.882;12.530;2023-02-03T07:20:36;102276.41;;;4.33;93.65
54948;BME280;41113;41.882;12.530;2023-02-03T07:23:01;102287.56;;;4.43;93.19
54948;BME280;41113;41.882;12.530;2023-02-03T07:25:27;102288.25;;;4.48;92.86
54948;BME280;41113;41.882;12.530;2023-02-03T07:27:53;102284.41;;;4.57;92.64
54948;BME280;41113;41.882;12.530;2023-02-03T07:30:18;102280.44;;;4.67;92.38
54948;BME280;41113;41.882;12.530;2023-02-03T07:32:48;102275.38;;;4.83;91.76
54948;BME280;41113;41.882;12.530;2023-02-03T07:35:14;102270.69;;;4.89;90.92
54948;BME280;41113;41.882;12.530;2023-02-03T07:37:40;102267.84;;;4.94;90.71
54948;BME280;41113;41.882;12.530;2023-02-03T07:40:06;102261.34;;;5.01;90.38
54948;BME280;41113;41.882;12.530;2023-02-03T07:42:31;102259.81;;;4.95;90.68
54948;BME280;41113;41.882;12.530;2023-02-03T07:44:57;102256.81;;;5.03;90.15
54948;BME280;41113;41.882;12.530;2023-02-03T07:47:22;102255.56;;;5.12;90.31
54948;BME280;41113;41.882;12.530;2023-02-03T07:49:47;102253.28;;;5.24;89.63
54948;BME280;41113;41.882;12.530;2023-02-03T07:52:13;102244.91;;;5.34;89.13
54948;BME280;41113;41.882;12.530;2023-02-03T07:54:38;102246.63;;;5.35;88.21
54948;BME280;41113;41.882;12.530;2023-02-03T07:57:03;102256.63;;;5.50;87.87
54948;BME280;41113;41.882;12.530;2023-02-03T07:59:29;102256.63;;;5.50;87.13
54948;BME280;41113;41.882;12.530;2023-02-03T08:01:54;102246.94;;;5.69;87.39
54948;BME280;41113;41.882;12.530;2023-02-03T08:04:21;102258.03;;;5.79;87.16
54948;BME280;41113;41.882;12.530;2023-02-03T08:06:46;102262.13;;;5.87;86.19
54948;BME280;41113;41.882;12.530;2023-02-03T08:09:12;102263.19;;;6.04;85.19
54948;BME280;41113;41.882;12.530;2023-02-03T08:11:37;102267.47;;;6.08;85.17
54948;BME280;41113;41.882;12.530;2023-02-03T08:14:02;102277.53;;;6.21;85.35
54948;BME280;41113;41.882;12.530;2023-02-03T08:16:30;102284.25;;;6.10;84.80
54948;BME280;41113;41.882;12.530;2023-02-03T08:18:56;102284.09;;;5.94;85.68
54948;BME280;41113;41.882;12.530;2023-02-03T08:21:22;102287.72;;;6.12;85.77
54948;BME280;41113;41.882;12.530;2023-02-03T08:23:48;102282.66;;;6.26;85.42
54948;BME280;41113;41.882;12.530;2023-02-03T08:26:13;102287.06;;;6.27;85.25
54948;BME280;41113;41.882;12.530;2023-02-03T08:28:38;102291.44;;;6.28;84.81
54948;BME280;41113;41.882;12.530;2023-02-03T08:31:11;102287.06;;;6.27;84.05
54948;BME280;41113;41.882;12.530;2023-02-03T08:33:36;102293.31;;;6.26;84.80
54948;BME280;41113;41.882;12.530;2023-02-03T08:36:02;102299.31;;;6.31;84.52
54948;BME280;41113;41.882;12.530;2023-02-03T08:38:27;102308.16;;;6.52;84.42
54948;BME280;41113;41.882;12.530;2023-02-03T08:40:53;102302.09;;;6.67;83.74
54948;BME280;41113;41.882;12.530;2023-02-03T08:43:19;102297.63;;;6.68;82.79
54948;BME280;41113;41.882;12.530;2023-02-03T08:45:44;102298.75;;;6.81;83.37
54948;BME280;41113;41.882;12.530;2023-02-03T08:48:10;102292.13;;;6.71;82.13
54948;BME280;41113;41.882;12.530;2023-02-03T08:50:35;102298.19;;;6.74;82.60
54948;BME280;41113;41.882;12.530;2023-02-03T08:53:00;102304.47;;;6.92;82.80
54948;BME280;41113;41.882;12.530;2023-02-03T08:55:26;102319.25;;;6.99;81.68
54948;BME280;41113;41.882;12.530;2023-02-03T08:57:51;102324.91;;;6.93;81.42
54948;BME280;41113;41.882;12.530;2023-02-03T09:00:18;102330.13;;;7.13;81.76
54948;BME280;41113;41.882;12.530;2023-02-03T09:02:43;102334.13;;;7.24;81.32
54948;BME280;41113;41.882;12.530;2023-02-03T09:05:09;102335.56;;;7.31;81.16
54948;BME280;41113;41.882;12.530;2023-02-03T09:07:34;102356.16;;;7.46;80.79
54948;BME280;41113;41.882;12.530;2023-02-03T09:10:00;102357.31;;;7.59;80.40
54948;BME280;41113;41.882;12.530;2023-02-03T09:12:25;102361.31;;;7.68;79.95
54948;BME280;41113;41.882;12.530;2023-02-03T09:14:50;102360.47;;;7.67;79.30
54948;BME280;41113;41.882;12.530;2023-02-03T09:17:16;102364.06;;;7.66;78.47
54948;BME280;41113;41.882;12.530;2023-02-03T09:19:41;102368.69;;;7.82;79.46
54948;BME280;41113;41.882;12.530;2023-02-03T09:22:07;102373.06;;;8.00;79.32
54948;BME280;41113;41.882;12.530;2023-02-03T09:24:32;102379.47;;;8.15;79.11
54948;BME280;41113;41.882;12.530;2023-02-03T09:26:58;102377.16;;;8.24;78.67
54948;BME280;41113;41.882;12.530;2023-02-03T09:29:25;102373.09;;;8.34;78.29
54948;BME280;41113;41.882;12.530;2023-02-03T09:31:50;102366.94;;;8.50;78.11
54948;BME280;41113;41.882;12.530;2023-02-03T09:34:19;102372.16;;;8.68;77.93
54948;BME280;41113;41.882;12.530;2023-02-03T09:36:45;102377.41;;;8.87;76.99
54948;BME280;41113;41.882;12.530;2023-02-03T09:39:11;102367.56;;;9.03;76.20
54948;BME280;41113;41.882;12.530;2023-02-03T09:44:20;102353.19;;;9.36;75.73
54948;BME280;41113;41.882;12.530;2023-02-03T09:47:10;102348.88;;;9.49;74.53
54948;BME280;41113;41.882;12.530;2023-02-03T09:49:43;102361.28;;;9.66;74.98
54948;BME280;41113;41.882;12.530;2023-02-03T09:52:22;102366.66;;;9.82;74.69
54948;BME280;41113;41.882;12.530;2023-02-03T09:55:24;102371.47;;;9.91;73.67
54948;BME280;41113;41.882;12.530;2023-02-03T09:58:14;102370.31;;;9.95;72.97
54948;BME280;41113;41.882;12.530;2023-02-03T10:00:45;102370.13;;;9.98;71.33
54948;BME280;41113;41.882;12.530;2023-02-03T10:16:45;102399.28;;;10.04;69.67
54948;BME280;41113;41.882;12.530;2023-02-03T10:19:19;102403.13;;;10.00;69.99
54948;BME280;41113;41.882;12.530;2023-02-03T10:21:50;102412.50;;;9.93;68.70
54948;BME280;41113;41.882;12.530;2023-02-03T10:24:35;102412.63;;;10.06;70.22
54948;BME280;41113;41.882;12.530;2023-02-03T10:27:03;102416.06;;;10.08;69.80
54948;BME280;41113;41.882;12.530;2023-02-03T10:29:34;102415.94;;;10.11;69.73
54948;BME280;41113;41.882;12.530;2023-02-03T10:32:01;102421.63;;;10.20;69.49
54948;BME280;41113;41.882;12.530;2023-02-03T10:34:27;102408.59;;;10.28;70.18
54948;BME280;41113;41.882;12.530;2023-02-03T10:39:46;102419.72;;;10.22;67.77
54948;BME280;41113;41.882;12.530;2023-02-03T10:42:13;102414.88;;;10.13;67.60
54948;BME280;41113;41.882;12.530;2023-02-03T10:44:43;102413.31;;;10.25;68.39
54948;BME280;41113;41.882;12.530;2023-02-03T10:47:22;102406.22;;;10.38;68.36
54948;BME280;41113;41.882;12.530;2023-02-03T10:49:54;102412.50;;;10.53;68.68
54948;BME280;41113;41.882;12.530;2023-02-03T10:52:25;102419.22;;;10.46;67.90
54948;BME280;41113;41.882;12.530;2023-02-03T10:54:51;102407.03;;;10.54;68.08
54948;BME280;41113;41.882;12.530;2023-02-03T10:57:17;102403.47;;;10.54;65.98
54948;BME280;41113;41.882;12.530;2023-02-03T10:59:46;102392.75;;;10.54;66.64
54948;BME280;41113;41.882;12.530;2023-02-03T11:02:22;102393.31;;;10.59;67.88
54948;BME280;41113;41.882;12.530;2023-02-03T11:05:07;102381.03;;;10.69;66.87
54948;BME280;41113;41.882;12.530;2023-02-03T11:07:34;102382.75;;;10.70;66.41
54948;BME280;41113;41.882;12.530;2023-02-03T11:09:59;102387.47;;;10.67;66.39
54948;BME280;41113;41.882;12.530;2023-02-03T11:12:24;102377.38;;;10.70;67.74
54948;BME280;41113;41.882;12.530;2023-02-03T11:14:51;102371.56;;;10.78;67.92
54948;BME280;41113;41.882;12.530;2023-02-03T11:17:25;102363.50;;;10.78;66.97
54948;BME280;41113;41.882;12.530;2023-02-03T11:19:53;102355.81;;;10.86;68.31
54948;BME280;41113;41.882;12.530;2023-02-03T11:22:31;102350.59;;;10.97;67.96
54948;BME280;41113;41.882;12.530;2023-02-03T11:24:58;102341.56;;;11.12;68.18
54948;BME280;41113;41.882;12.530;2023-02-03T11:27:29;102324.16;;;11.18;67.86
54948;BME280;41113;41.882;12.530;2023-02-03T11:30:15;102316.84;;;11.20;67.16
54948;BME280;41113;41.882;12.530;2023-02-03T11:32:45;102316.53;;;11.25;67.75
54948;BME280;41113;41.882;12.530;2023-02-03T11:35:24;102302.22;;;11.24;67.35
54948;BME280;41113;41.882;12.530;2023-02-03T11:37:55;102301.06;;;11.28;67.74
54948;BME280;41113;41.882;12.530;2023-02-03T11:40:25;102303.75;;;11.28;67.88
54948;BME280;41113;41.882;12.530;2023-02-03T12:09:57;102244.38;;;11.31;65.95
54948;BME280;41113;41.882;12.530;2023-02-03T12:18:08;102264.03;;;11.46;66.67
54948;BME280;41113;41.882;12.530;2023-02-03T12:27:03;102262.75;;;11.51;67.06
54948;BME280;41113;41.882;12.530;2023-02-03T12:29:23;102258.88;;;11.56;67.07
54948;BME280;41113;41.882;12.530;2023-02-03T12:32:11;102247.69;;;11.62;67.01
54948;BME280;41113;41.882;12.530;2023-02-03T12:34:45;102243.81;;;11.66;66.98
54948;BME280;41113;41.882;12.530;2023-02-03T12:38:00;102234.97;;;11.64;67.10
54948;BME280;41113;41.882;12.530;2023-02-03T12:40:13;102228.31;;;11.69;66.40
54948;BME280;41113;41.882;12.530;2023-02-03T12:42:46;102223.50;;;11.74;66.46
54948;BME280;41113;41.882;12.530;2023-02-03T12:45:19;102222.53;;;11.75;66.47
54948;BME280;41113;41.882;12.530;2023-02-03T12:47:50;102216.28;;;11.75;66.82
54948;BME280;41113;41.882;12.530;2023-02-03T12:50:18;102210.03;;;11.74;66.53
54948;BME280;41113;41.882;12.530;2023-02-03T12:55:56;102202.72;;;11.76;65.86
54948;BME280;41113;41.882;12.530;2023-02-03T12:58:35;102190.91;;;11.79;66.06
54948;BME280;41113;41.882;12.530;2023-02-03T13:01:11;102181.75;;;11.81;66.41
54948;BME280;41113;41.882;12.530;2023-02-03T13:03:42;102180.69;;;11.84;66.78
54948;BME280;41113;41.882;12.530;2023-02-03T13:06:32;102176.47;;;11.80;66.83
54948;BME280;41113;41.882;12.530;2023-02-03T13:12:07;102160.34;;;11.80;65.77
54948;BME280;41113;41.882;12.530;2023-02-03T13:14:41;102158.50;;;11.80;66.40
54948;BME280;41113;41.882;12.530;2023-02-03T13:17:25;102162.06;;;11.81;65.52
54948;BME280;41113;41.882;12.530;2023-02-03T13:19:55;102160.34;;;11.80;66.05
54948;BME280;41113;41.882;12.530;2023-02-03T13:22:23;102162.28;;;11.78;66.06
54948;BME280;41113;41.882;12.530;2023-02-03T13:28:23;102153.81;;;11.70;63.88
54948;BME280;41113;41.882;12.530;2023-02-03T13:41:53;102125.00;;;11.72;65.62
54948;BME280;41113;41.882;12.530;2023-02-03T13:44:24;102130.16;;;11.75;66.05
54948;BME280;41113;41.882;12.530;2023-02-03T13:46:55;102130.16;;;11.75;66.36
54948;BME280;41113;41.882;12.530;2023-02-03T13:49:29;102120.16;;;11.77;66.21
54948;BME280;41113;41.882;12.530;2023-02-03T13:51:56;102129.75;;;11.81;66.10
54948;BME280;41113;41.882;12.530;2023-02-03T13:54:34;102124.16;;;11.84;66.02
54948;BME280;41113;41.882;12.530;2023-02-03T13:57:02;102125.88;;;11.85;65.02
54948;BME280;41113;41.882;12.530;2023-02-03T13:59:41;102118.53;;;11.87;65.55
54948;BME280;41113;41.882;12.530;2023-02-03T14:04:52;102131.13;;;11.87;66.26
54948;BME280;41113;41.882;12.530;2023-02-03T14:12:57;102153.22;;;11.92;68.02
54948;BME280;41113;41.882;12.530;2023-02-03T14:22:51;102148.25;;;11.98;68.58
54948;BME280;41113;41.882;12.530;2023-02-03T14:25:19;102145.66;;;11.97;68.81
54948;BME280;41113;41.882;12.530;2023-02-03T14:27:46;102140.91;;;12.00;69.39
54948;BME280;41113;41.882;12.530;2023-02-03T14:30:14;102153.63;;;11.98;69.71
54948;BME280;41113;41.882;12.530;2023-02-03T14:32:54;102146.75;;;11.94;70.03
54948;BME280;41113;41.882;12.530;2023-02-03T14:35:42;102146.09;;;11.91;71.33
54948;BME280;41113;41.882;12.530;2023-02-03T14:38:13;102146.22;;;11.89;71.65
54948;BME280;41113;41.882;12.530;2023-02-03T14:52:27;102147.50;;;11.71;74.32
54948;BME280;41113;41.882;12.530;2023-02-03T14:57:45;102148.88;;;11.64;75.66
54948;BME280;41113;41.882;12.530;2023-02-03T15:07:55;102146.50;;;11.46;76.82
54948;BME280;41113;41.882;12.530;2023-02-03T15:10:29;102140.59;;;11.41;76.76
54948;BME280;41113;41.882;12.530;2023-02-03T15:12:56;102143.69;;;11.35;76.85
54948;BME280;41113;41.882;12.530;2023-02-03T15:15:26;102141.09;;;11.34;77.34